Astoria, OR (97103)

6:26 AM PDT on April 21, 2015 (GMT -0700)
Knappa, Oregon | | Change Station
CLOSE
Current Station
Personal Weather Station
Location: Astoria, OR
Elevation: 105 ft
Nearby Weather Stations

Elev 105 ft 46.17 °N, 123.58 °W | Updated 13 minutes ago

Overcast
Overcast
51.4 °F
Feels Like 51.4 °F
N
1.0
Wind Variable Wind from SW
Gusts 5.0 mph

Today
High -- | Low -- °F
--% Chance of Precip.
Yesterday
High -- | Low -- °F
Precip. -- in
6:18 AM 8:10 PM
Waxing Crescent, 10% visible
Pressure 29.95 in
Visibility 2.5 miles
Clouds Overcast 700 ft
Dew Point 46 °F
Humidity 80%
Rainfall 0.00 in
Snow Depth Not available.
UV 0 out of 12
Pollen 9.90 out of 12
Air Quality Not available.
Flu Activity Regional
SPECI KAST 211307Z AUTO 31006KT 2 1/2SM -RA BR OVC007 11/09 A2995 RMK AO2 VIS 1 3/4 RWY 08 RAB02 P0001 T01060094

More Conditions Fewer Conditions

Pressure 29.95 in
Visibility 2.5 miles
Clouds Overcast 700 ft
Dew Point 46 °F
Humidity 80%
Rainfall 0.00 in
Snow Depth Not available.
UV 0 out of 12
Pollen 9.90 out of 12
Air Quality Not available.
Flu Activity Regional
SPECI KAST 211307Z AUTO 31006KT 2 1/2SM -RA BR OVC007 11/09 A2995 RMK AO2 VIS 1 3/4 RWY 08 RAB02 P0001 T01060094

More Conditions Fewer Conditions

10-Day Weather Forecast

Almanac

Astronomy

Apr. 21, 2015 Rise Set
Actual Time
Civil Twilight
Nautical Twilight
Astronomical Twilight
Moon
Length of Visible Light
Length of Day
Tomorrow will be .
, % of the Moon is Illuminated

Today's Extremes

State Highs State Lows

Community

WunderPhotos

Upload Photos

1,815,374 photos uploaded!

WunderBlogs® & News

Nearby

Air Quality

  Air Quality AQ Index Pollutant
Not available.

Snow Depth

Station Depth Elevation

Earthquake Activity

City Distance Mag. Time & Date
Minimum magnitude displayed is 2.5.

Coastal Water Temperatures

Place Temperature

Stations

Nearby Weather Stations

Station Location Temp. Windchill Dew Point Humidity Wind Precip. Elev Updated Type